Terminal Aerodrome Forecast
Issued by NWS Central Illinois

Home | Current Version | Previous Version | Text Only | Print | Product List | Glossary On
Versions: 1 2 3 4 5 6 7 8 9 10 11 12 13 14 15 16 17 18 19 20
700
FTUS43 KILX 230226 AAA
TAFSPI
TAF AMD
KSPI 230226Z 2302/2324 VRB03KT P6SM SCT250
      TEMPO 2308/2312 5SM BR
     FM231400 34006KT P6SM SCT040=

USA.gov is the U.S. government's official web portal to all federal, state and local government web resources and services.